Terminal Aerodrome Forecast
Issued by NWS

Home | Current Version | Previous Version | Text Only | Print | Product List | Glossary On
Versions: 1 2 3 4 5 6 7 8 9 10 11 12 13 14 15 16 17 18
000
FTUS42 KFFC 270535
TAFRYY
TAF
KRYY 270535Z 2706/2806 00000KT P6SM SCT060
     FM271200 15004KT P6SM SCT040 BKN120
     FM271500 15005KT P6SM BKN050
     FM272300 13007KT P6SM FEW050 SCT250
      AMD NOT SKED TIL 271200=

USA.gov is the U.S. government's official web portal to all federal, state and local government web resources and services.